Time;durP1;ratioP1;P1;durP2;ratioP2;P2;SDS_P1;SDS_P2;PMS_P1;PMS_P2;Temp;Humidity;BMP_temperature;BMP_pressure;BME280_temperature;BME280_humidity;BME280_pressure;Samples;Min_cycle;Max_cycle;Signal;HPM_P1;HPM_P2
2022/12/13 00:00:02;;;;;;;59.97;35.77;;;0.80;99.90;;;;;;5074731;28;20660;-65
2022/12/13 00:02:29;;;;;;;60.77;34.83;;;0.80;99.90;;;;;;5073859;28;20314;-65
2022/12/13 00:04:55;;;;;;;59.30;34.70;;;0.70;99.90;;;;;;5074353;28;20214;-66
2022/12/13 00:07:22;;;;;;;58.20;34.37;;;0.60;99.90;;;;;;5063109;28;20247;-65
2022/12/13 00:09:49;;;;;;;52.27;32.20;;;0.60;99.90;;;;;;5054168;28;20205;-66
2022/12/13 00:12:16;;;;;;;54.80;32.10;;;0.70;99.90;;;;;;5054443;28;20292;-65
2022/12/13 00:14:44;;;;;;;52.80;32.10;;;0.70;99.90;;;;;;5061114;28;20658;-65
2022/12/13 00:17:11;;;;;;;51.07;31.70;;;0.70;99.90;;;;;;5072823;28;20197;-63
2022/12/13 00:19:38;;;;;;;50.80;30.50;;;0.70;99.90;;;;;;5073853;28;20205;-64
2022/12/13 00:22:04;;;;;;;48.77;30.93;;;0.70;99.90;;;;;;5071893;28;20325;-65
2022/12/13 00:24:31;;;;;;;51.37;31.47;;;0.80;99.90;;;;;;5072129;28;20250;-65
2022/12/13 00:26:58;;;;;;;47.40;30.20;;;0.80;99.90;;;;;;5074279;28;20232;-65
2022/12/13 00:29:25;;;;;;;51.87;31.10;;;0.80;99.90;;;;;;5073799;28;20204;-64
2022/12/13 00:31:53;;;;;;;49.10;30.73;;;0.80;99.90;;;;;;5073868;28;20251;-66
2022/12/13 00:34:20;;;;;;;50.07;30.73;;;0.80;99.90;;;;;;5073134;28;20204;-64
2022/12/13 00:36:47;;;;;;;47.60;30.63;;;0.90;99.90;;;;;;5073706;28;20207;-63
2022/12/13 00:39:15;;;;;;;47.97;29.73;;;0.90;99.90;;;;;;5073546;28;20211;-65
2022/12/13 00:41:43;;;;;;;44.43;29.27;;;0.90;99.90;;;;;;5073992;28;20615;-65
2022/12/13 00:44:11;;;;;;;46.20;28.57;;;0.90;99.90;;;;;;5073060;28;20649;-65
2022/12/13 00:46:39;;;;;;;51.43;30.97;;;0.90;99.90;;;;;;5073279;28;20213;-65
2022/12/13 00:49:07;;;;;;;44.50;29.17;;;0.90;99.90;;;;;;5071801;28;20204;-64
2022/12/13 00:51:34;;;;;;;46.50;29.37;;;0.90;99.90;;;;;;5073439;28;20192;-64
2022/12/13 00:54:01;;;;;;;46.20;29.17;;;0.90;99.90;;;;;;5071894;28;20204;-64
2022/12/13 00:56:30;;;;;;;44.67;28.70;;;0.90;99.90;;;;;;5072723;28;20197;-66
2022/12/13 00:58:57;;;;;;;45.67;29.20;;;0.90;99.90;;;;;;5073315;28;20610;-64
2022/12/13 01:01:27;;;;;;;43.77;26.67;;;0.90;99.90;;;;;;5073065;28;20212;-65
2022/12/13 01:03:54;;;;;;;42.87;27.20;;;0.90;99.90;;;;;;5073754;28;20565;-64
2022/12/13 01:06:26;;;;;;;44.60;27.73;;;0.90;99.90;;;;;;5071313;28;20211;-64
2022/12/13 01:08:53;;;;;;;40.93;27.20;;;0.90;99.90;;;;;;5073286;28;20211;-64
2022/12/13 01:11:20;;;;;;;42.57;26.93;;;0.90;99.90;;;;;;5073093;28;20615;-64
2022/12/13 01:13:47;;;;;;;41.30;25.80;;;0.90;99.90;;;;;;5072713;28;20200;-63
2022/12/13 01:16:14;;;;;;;45.53;27.70;;;0.90;99.90;;;;;;5072084;28;20645;-63
2022/12/13 01:18:41;;;;;;;43.73;27.10;;;0.90;99.90;;;;;;5073275;28;20579;-64
2022/12/13 01:21:11;;;;;;;45.83;27.47;;;0.90;99.90;;;;;;5072571;28;20209;-64
2022/12/13 01:23:40;;;;;;;43.53;27.40;;;0.90;99.90;;;;;;5072995;28;20618;-66
2022/12/13 01:26:09;;;;;;;44.27;27.40;;;0.90;99.90;;;;;;5071775;28;20208;-64
2022/12/13 01:28:36;;;;;;;47.20;28.70;;;0.80;99.90;;;;;;5072309;28;20220;-66
2022/12/13 01:31:06;;;;;;;46.43;28.03;;;0.80;99.90;;;;;;5072794;28;20556;-67
2022/12/13 01:33:33;;;;;;;45.20;27.93;;;0.80;99.90;;;;;;5072325;28;20292;-65
2022/12/13 01:36:01;;;;;;;42.10;26.63;;;0.80;99.90;;;;;;5071339;28;20204;-63
2022/12/13 01:38:28;;;;;;;45.13;26.83;;;0.80;99.90;;;;;;5072202;28;20231;-66
2022/12/13 01:40:57;;;;;;;43.83;26.87;;;0.90;99.90;;;;;;5072495;28;20214;-64
2022/12/13 01:43:26;;;;;;;45.00;28.17;;;0.90;99.90;;;;;;5072347;28;20201;-63
2022/12/13 01:45:53;;;;;;;42.60;25.50;;;0.90;99.90;;;;;;5070646;28;20224;-64
2022/12/13 01:48:24;;;;;;;45.10;28.00;;;0.90;99.90;;;;;;5070417;28;20242;-64
2022/12/13 01:50:53;;;;;;;45.00;28.10;;;1.00;99.90;;;;;;5052187;28;20244;-65
2022/12/13 01:53:24;;;;;;;42.13;26.70;;;1.00;99.90;;;;;;5052166;28;20205;-64
2022/12/13 01:55:56;;;;;;;43.53;27.33;;;1.00;99.90;;;;;;5057647;28;20212;-66
2022/12/13 01:58:24;;;;;;;43.27;27.50;;;1.00;99.90;;;;;;5067559;28;20193;-63
2022/12/13 02:00:51;;;;;;;41.20;26.30;;;1.00;99.90;;;;;;5072292;28;20676;-66
2022/12/13 02:03:20;;;;;;;43.53;27.27;;;1.10;99.90;;;;;;5072339;28;20230;-65
2022/12/13 02:05:54;;;;;;;46.13;28.23;;;1.10;99.90;;;;;;5070352;28;20200;-65
2022/12/13 02:08:22;;;;;;;40.77;26.63;;;1.10;99.90;;;;;;5072209;28;20561;-64
2022/12/13 02:10:48;;;;;;;42.83;27.67;;;1.10;99.90;;;;;;5070718;28;20201;-65
2022/12/13 02:13:17;;;;;;;51.37;30.13;;;1.10;99.90;;;;;;5071470;28;20208;-66
2022/12/13 02:15:53;;;;;;;43.00;27.20;;;1.10;99.90;;;;;;5071845;28;20214;-65
2022/12/13 02:18:40;;;;;;;43.67;27.77;;;1.20;99.90;;;;;;5071599;28;20191;-66
2022/12/13 06:52:53;;;;;;;54.57;34.57;;;0.00;99.90;;;;;;5086128;27;20596;-63
2022/12/13 06:55:20;;;;;;;54.50;36.23;;;0.10;99.90;;;;;;5088426;28;20275;-65
2022/12/13 07:00:20;;;;;;;55.70;34.53;;;0.30;99.90;;;;;;5027390;28;20214;-66
2022/12/13 07:02:52;;;;;;;48.93;31.27;;;0.40;99.90;;;;;;5029231;28;20209;-65
2022/12/13 07:05:19;;;;;;;49.03;31.50;;;0.50;99.90;;;;;;5026271;28;20268;-66
2022/12/13 07:07:45;;;;;;;49.27;30.57;;;0.60;99.90;;;;;;5027966;28;20205;-66
2022/12/13 07:10:14;;;;;;;46.80;30.33;;;0.70;99.90;;;;;;5028652;28;20209;-64
2022/12/13 07:12:41;;;;;;;47.63;30.43;;;0.80;99.90;;;;;;5027419;28;20715;-65
2022/12/13 07:15:09;;;;;;;45.30;29.57;;;0.90;99.90;;;;;;5028384;28;20232;-64
2022/12/13 07:17:36;;;;;;;50.77;30.50;;;0.90;99.90;;;;;;5028951;28;20206;-65
2022/12/13 07:20:06;;;;;;;49.17;29.40;;;1.00;99.90;;;;;;5027727;28;20676;-64
2022/12/13 07:22:33;;;;;;;48.77;29.97;;;1.00;99.90;;;;;;5029236;28;20635;-65
2022/12/13 07:25:00;;;;;;;46.93;30.07;;;1.10;99.90;;;;;;5027107;28;20213;-67
2022/12/13 07:27:28;;;;;;;46.07;29.23;;;1.20;99.90;;;;;;5028833;28;20206;-66
2022/12/13 07:29:54;;;;;;;47.00;29.57;;;1.20;99.90;;;;;;5027129;28;20206;-65
2022/12/13 07:32:21;;;;;;;47.47;29.73;;;1.30;99.90;;;;;;5028015;28;20712;-64
2022/12/13 07:34:48;;;;;;;44.37;27.17;;;1.30;99.90;;;;;;5029167;28;20214;-64
2022/12/13 07:37:15;;;;;;;40.57;27.40;;;1.30;99.90;;;;;;5028290;28;20206;-65
2022/12/13 07:39:42;;;;;;;42.33;26.83;;;1.30;99.90;;;;;;5028680;28;20210;-65
2022/12/13 07:42:08;;;;;;;42.60;26.80;;;1.40;99.90;;;;;;5028631;28;20198;-65
2022/12/13 07:44:36;;;;;;;44.77;26.73;;;1.40;99.90;;;;;;5028714;28;20206;-67
2022/12/13 07:47:03;;;;;;;43.13;27.63;;;1.40;99.90;;;;;;5023488;28;20202;-64
2022/12/13 07:49:30;;;;;;;42.57;26.07;;;1.40;99.90;;;;;;5027254;28;20574;-66
2022/12/13 07:51:57;;;;;;;40.70;25.60;;;1.40;99.90;;;;;;5027662;28;20716;-66
2022/12/13 07:54:24;;;;;;;44.00;26.87;;;1.50;99.90;;;;;;5029631;28;20567;-65
2022/12/13 07:56:50;;;;;;;41.27;26.00;;;1.50;99.90;;;;;;5028536;28;20214;-66
2022/12/13 07:59:17;;;;;;;41.13;25.93;;;1.50;99.90;;;;;;5028529;28;20234;-66
2022/12/13 08:01:45;;;;;;;39.13;25.87;;;1.50;99.90;;;;;;5028115;28;20289;-66
2022/12/13 08:04:13;;;;;;;42.00;27.57;;;1.50;99.90;;;;;;5014812;28;20571;-65
2022/12/13 08:06:39;;;;;;;42.93;26.50;;;1.60;99.90;;;;;;5015110;28;20204;-66
2022/12/13 08:09:06;;;;;;;41.70;26.60;;;1.50;99.90;;;;;;5014991;28;20199;-68
2022/12/13 08:11:33;;;;;;;42.20;26.03;;;1.50;99.90;;;;;;5014815;28;20249;-67
2022/12/13 08:14:00;;;;;;;40.43;26.03;;;1.60;99.90;;;;;;5013690;28;20206;-66
2022/12/13 08:16:27;;;;;;;45.83;27.30;;;1.60;99.90;;;;;;5013929;28;20570;-67
2022/12/13 08:18:55;;;;;;;44.03;26.37;;;1.60;99.90;;;;;;5013359;28;20209;-65
2022/12/13 08:21:22;;;;;;;45.30;28.17;;;1.60;99.90;;;;;;5014403;28;20203;-66
2022/12/13 08:23:49;;;;;;;43.80;28.03;;;1.60;99.90;;;;;;5014748;28;20207;-65
2022/12/13 08:26:16;;;;;;;40.00;25.80;;;1.70;99.90;;;;;;5014738;28;20681;-67
2022/12/13 08:28:42;;;;;;;39.73;25.13;;;1.60;99.90;;;;;;5009025;28;20214;-66
2022/12/13 08:31:11;;;;;;;40.17;25.03;;;1.70;99.90;;;;;;5012086;28;20681;-66
2022/12/13 08:33:41;;;;;;;38.83;24.13;;;1.70;99.90;;;;;;5014826;28;20438;-66
2022/12/13 08:36:10;;;;;;;36.70;23.63;;;1.70;99.90;;;;;;5013819;28;20209;-65
2022/12/13 08:38:37;;;;;;;36.77;24.30;;;1.70;99.90;;;;;;5014687;28;20207;-65
2022/12/13 08:41:04;;;;;;;40.43;24.43;;;1.70;99.90;;;;;;5014483;28;20670;-66
2022/12/13 08:43:31;;;;;;;33.90;22.47;;;1.70;99.90;;;;;;5014208;28;20202;-66
2022/12/13 08:45:58;;;;;;;32.30;21.77;;;1.70;99.90;;;;;;5014082;28;20222;-66
2022/12/13 08:48:24;;;;;;;32.63;21.40;;;1.70;99.90;;;;;;5014373;28;20195;-65
2022/12/13 08:50:51;;;;;;;35.43;22.00;;;1.70;99.90;;;;;;5014198;28;20203;-65
2022/12/13 08:53:19;;;;;;;36.30;23.10;;;1.70;99.90;;;;;;5014004;28;20594;-63
2022/12/13 08:55:46;;;;;;;34.60;22.87;;;1.70;99.90;;;;;;5014149;28;20603;-64
2022/12/13 08:58:13;;;;;;;35.57;23.03;;;1.60;99.90;;;;;;5014015;28;20257;-65
2022/12/13 09:00:41;;;;;;;32.13;21.70;;;1.60;99.90;;;;;;5014339;28;20191;-64
2022/12/13 09:03:08;;;;;;;30.87;20.70;;;1.60;99.90;;;;;;5013357;28;20234;-65
2022/12/13 09:05:35;;;;;;;34.13;21.43;;;1.70;99.90;;;;;;5013641;28;20195;-67
2022/12/13 09:08:03;;;;;;;32.57;21.90;;;1.70;99.90;;;;;;5013467;28;20203;-65
2022/12/13 09:10:31;;;;;;;38.10;23.87;;;1.70;99.90;;;;;;5013473;28;20273;-65
2022/12/13 09:12:58;;;;;;;35.30;22.90;;;1.70;99.90;;;;;;5013498;28;20234;-66
2022/12/13 09:15:25;;;;;;;34.83;22.73;;;1.70;99.90;;;;;;5012437;28;20198;-66
2022/12/13 09:17:52;;;;;;;35.87;22.63;;;1.70;99.90;;;;;;5013178;28;20559;-64
2022/12/13 09:20:19;;;;;;;35.03;22.30;;;1.70;99.90;;;;;;5013838;28;20680;-65
2022/12/13 09:22:46;;;;;;;33.20;22.53;;;1.70;99.90;;;;;;5013528;28;20205;-66
2022/12/13 09:25:13;;;;;;;33.30;21.60;;;1.80;99.90;;;;;;5013529;28;20217;-66
2022/12/13 09:27:41;;;;;;;33.57;21.47;;;1.80;99.90;;;;;;5013920;28;20217;-66
2022/12/13 09:30:11;;;;;;;28.83;19.30;;;1.80;99.90;;;;;;5013398;28;20254;-67
2022/12/13 09:32:39;;;;;;;29.50;20.27;;;1.80;99.90;;;;;;5012839;28;20211;-66
2022/12/13 09:35:06;;;;;;;28.50;18.83;;;1.80;99.90;;;;;;5012843;28;20213;-65
2022/12/13 09:37:33;;;;;;;26.30;18.00;;;1.80;99.90;;;;;;5012542;28;20199;-64
2022/12/13 09:40:00;;;;;;;27.87;17.87;;;1.80;99.90;;;;;;5010612;28;20225;-66
2022/12/13 09:42:29;;;;;;;30.83;19.73;;;1.80;99.90;;;;;;5012043;28;20223;-66
2022/12/13 09:45:00;;;;;;;28.63;19.93;;;1.80;99.90;;;;;;5012371;28;20297;-66
2022/12/13 09:47:31;;;;;;;28.60;18.70;;;1.80;99.90;;;;;;5012976;28;20566;-65
2022/12/13 09:50:00;;;;;;;27.10;18.43;;;1.80;99.90;;;;;;5013121;28;20195;-65
2022/12/13 09:52:35;;;;;;;27.93;18.47;;;1.90;99.90;;;;;;5013043;28;20250;-65
2022/12/13 09:55:02;;;;;;;29.93;19.23;;;1.90;99.90;;;;;;5013300;28;20194;-65
2022/12/13 09:57:31;;;;;;;30.40;18.57;;;1.90;99.90;;;;;;5013865;28;20203;-66
2022/12/13 10:00:01;;;;;;;28.30;18.90;;;1.80;99.90;;;;;;5013043;28;20325;-67
2022/12/13 10:02:30;;;;;;;26.87;19.53;;;1.90;99.90;;;;;;5013435;28;20217;-65
2022/12/13 10:05:08;;;;;;;32.37;21.23;;;1.90;99.90;;;;;;5013081;28;20206;-65
2022/12/13 14:21:39;;;;;;;38.03;25.43;;;-0.50;99.90;;;;;;5107030;27;20630;-67
2022/12/13 14:24:24;;;;;;;33.50;24.00;;;-0.50;99.90;;;;;;5052458;28;20293;-66
2022/12/13 14:27:05;;;;;;;33.10;22.83;;;-0.40;99.90;;;;;;5088375;28;20592;-68
2022/12/13 14:29:37;;;;;;;35.10;23.80;;;-0.30;99.90;;;;;;5088506;28;20199;-68
2022/12/13 14:32:10;;;;;;;31.83;22.73;;;-0.20;99.90;;;;;;5089035;28;20193;-68
2022/12/13 14:34:38;;;;;;;32.73;21.73;;;-0.20;99.90;;;;;;5086826;28;20236;-66
2022/12/13 14:37:21;;;;;;;33.57;23.30;;;-0.10;99.90;;;;;;5088911;28;20679;-66
2022/12/13 14:39:48;;;;;;;32.80;22.00;;;-0.10;99.90;;;;;;5088696;28;20212;-66
2022/12/13 14:42:24;;;;;;;32.47;22.57;;;0.00;99.90;;;;;;5088786;28;20551;-68
2022/12/13 14:44:51;;;;;;;31.33;21.93;;;0.00;99.90;;;;;;5087638;28;20204;-67
2022/12/13 14:47:19;;;;;;;29.87;21.30;;;0.00;99.90;;;;;;5088483;28;20219;-66
2022/12/13 14:49:50;;;;;;;31.07;19.90;;;0.10;99.90;;;;;;5088378;28;20208;-67
2022/12/13 14:52:22;;;;;;;33.30;21.80;;;0.10;99.90;;;;;;5089423;28;20606;-67
2022/12/13 14:57:26;;;;;;;31.90;20.87;;;0.20;99.90;;;;;;5532834;22;20608;-67
2022/12/13 14:59:55;;;;;;;32.83;22.97;;;0.20;99.90;;;;;;5052092;28;20232;-67
2022/12/13 15:02:24;;;;;;;33.83;22.63;;;0.20;99.90;;;;;;5047575;28;20202;-67
2022/12/13 15:04:53;;;;;;;36.00;24.20;;;0.20;99.90;;;;;;5055777;28;20289;-65
2022/12/13 15:07:26;;;;;;;33.77;22.80;;;0.20;99.90;;;;;;5064923;28;20308;-66
2022/12/13 15:09:57;;;;;;;37.03;24.13;;;0.20;99.90;;;;;;5048283;28;20805;-68
2022/12/13 15:12:24;;;;;;;36.17;23.67;;;0.20;99.90;;;;;;5047630;28;20281;-65
2022/12/13 15:14:58;;;;;;;35.00;23.33;;;0.30;99.90;;;;;;5047729;28;20240;-69
2022/12/13 15:17:31;;;;;;;33.63;23.20;;;0.30;99.90;;;;;;5047251;28;20194;-65
2022/12/13 15:19:58;;;;;;;31.90;21.73;;;0.30;99.90;;;;;;5047824;28;20289;-66
2022/12/13 15:22:27;;;;;;;34.50;22.03;;;0.30;99.90;;;;;;5048001;28;20324;-66
2022/12/13 15:24:56;;;;;;;30.93;21.17;;;0.20;99.90;;;;;;5047567;28;20593;-66
2022/12/13 15:27:23;;;;;;;31.87;21.27;;;0.20;99.90;;;;;;5047005;28;20217;-64
2022/12/13 15:29:51;;;;;;;32.60;21.27;;;0.30;99.90;;;;;;5047755;28;20198;-67
2022/12/13 15:32:21;;;;;;;28.80;20.10;;;0.30;99.90;;;;;;5038132;28;20241;-67
2022/12/13 15:34:49;;;;;;;30.53;20.53;;;0.20;99.90;;;;;;5033819;28;20559;-67
2022/12/13 15:37:24;;;;;;;30.00;19.23;;;0.30;99.90;;;;;;5033826;28;20204;-68
2022/12/13 15:39:55;;;;;;;28.30;18.83;;;0.30;99.90;;;;;;5034207;28;20213;-67
2022/12/13 15:42:25;;;;;;;27.30;18.57;;;0.30;99.90;;;;;;5033664;28;20325;-69
2022/12/13 15:44:56;;;;;;;26.87;18.27;;;0.30;99.90;;;;;;5034356;28;20560;-68
2022/12/13 15:47:24;;;;;;;27.33;17.60;;;0.30;99.90;;;;;;5034174;28;20199;-67
2022/12/13 15:49:53;;;;;;;32.17;18.07;;;0.20;99.90;;;;;;5034350;28;20206;-66
2022/12/13 15:52:34;;;;;;;24.13;16.30;;;0.30;99.90;;;;;;5032122;28;20206;-67
2022/12/13 15:55:23;;;;;;;25.30;16.50;;;0.30;99.90;;;;;;5045702;28;20201;-69
2022/12/13 15:57:52;;;;;;;27.40;18.17;;;0.30;99.90;;;;;;5051824;28;20237;-67
2022/12/13 16:00:22;;;;;;;25.20;16.43;;;0.30;99.90;;;;;;5033899;28;20256;-67
2022/12/13 16:02:53;;;;;;;24.03;15.93;;;0.30;99.90;;;;;;5033345;28;20533;-65
2022/12/13 16:05:27;;;;;;;24.30;15.87;;;0.30;99.90;;;;;;5050214;28;20201;-67
2022/12/13 16:07:55;;;;;;;24.67;16.67;;;0.30;99.90;;;;;;5049191;28;20214;-66
2022/12/13 16:10:23;;;;;;;23.43;16.43;;;0.30;99.90;;;;;;5033851;28;20209;-68
2022/12/13 16:12:53;;;;;;;22.70;15.70;;;0.40;99.90;;;;;;5033924;28;20212;-68
2022/12/13 16:15:23;;;;;;;23.47;15.53;;;0.40;99.90;;;;;;5033537;28;20650;-66
2022/12/13 16:17:51;;;;;;;21.67;14.37;;;0.40;99.90;;;;;;5033708;28;20296;-67
2022/12/13 16:20:19;;;;;;;23.03;15.37;;;0.40;99.90;;;;;;5039632;28;20292;-67
2022/12/13 16:22:46;;;;;;;20.53;14.40;;;0.50;99.90;;;;;;5033213;28;20538;-67
2022/12/13 16:25:15;;;;;;;23.40;15.40;;;0.50;99.90;;;;;;5031390;28;20206;-69
2022/12/13 16:27:44;;;;;;;20.87;14.60;;;0.50;99.90;;;;;;5033011;28;20245;-67
2022/12/13 16:30:22;;;;;;;21.07;14.73;;;0.50;99.90;;;;;;5034332;28;20209;-67
2022/12/13 16:32:49;;;;;;;20.60;14.23;;;0.50;99.90;;;;;;5029125;28;20202;-68
2022/12/13 16:35:16;;;;;;;21.47;14.10;;;0.50;99.90;;;;;;5034261;28;20228;-68
2022/12/13 16:37:43;;;;;;;22.10;14.03;;;0.50;99.90;;;;;;5053029;28;20570;-67
2022/12/13 16:40:27;;;;;;;21.17;14.63;;;0.50;99.90;;;;;;5043900;28;20226;-68
2022/12/13 16:42:57;;;;;;;22.47;14.77;;;0.50;99.90;;;;;;5012821;28;20258;-69
2022/12/13 16:45:23;;;;;;;21.40;15.20;;;0.50;99.90;;;;;;5039406;28;20209;-66
2022/12/13 16:47:50;;;;;;;21.03;14.83;;;0.60;99.90;;;;;;5036700;28;20202;-66
2022/12/13 16:50:20;;;;;;;21.87;15.20;;;0.50;99.90;;;;;;5041387;28;20197;-68
2022/12/13 16:52:46;;;;;;;26.57;17.67;;;0.50;99.90;;;;;;5033206;28;20654;-68
2022/12/13 16:55:13;;;;;;;22.30;15.33;;;0.50;99.90;;;;;;5028613;28;20572;-69
2022/12/13 16:57:40;;;;;;;30.67;17.80;;;0.50;99.90;;;;;;5033098;28;20763;-67
2022/12/13 17:00:12;;;;;;;21.80;15.73;;;0.60;99.90;;;;;;5032855;28;20226;-68
2022/12/13 17:02:39;;;;;;;25.10;16.13;;;0.60;99.90;;;;;;5032759;28;20200;-68
2022/12/13 17:05:06;;;;;;;24.07;16.20;;;0.50;99.90;;;;;;5030052;28;20708;-68
2022/12/13 17:07:34;;;;;;;23.27;16.57;;;0.50;99.90;;;;;;5032209;28;20206;-70
2022/12/13 17:10:01;;;;;;;21.33;14.60;;;0.50;99.90;;;;;;5030355;28;20226;-70
2022/12/13 17:12:27;;;;;;;24.40;15.93;;;0.50;99.90;;;;;;5021256;28;20213;-69
2022/12/13 17:14:54;;;;;;;24.30;15.80;;;0.50;99.90;;;;;;5031681;28;20198;-67
2022/12/13 17:17:22;;;;;;;21.93;15.23;;;0.50;99.90;;;;;;5034602;28;20233;-69
2022/12/13 17:19:49;;;;;;;19.57;13.90;;;0.50;99.90;;;;;;5032071;28;20710;-69
2022/12/13 17:22:16;;;;;;;20.57;14.03;;;0.50;99.90;;;;;;5032399;28;20289;-67
2022/12/13 17:24:43;;;;;;;23.03;15.60;;;0.40;99.90;;;;;;5032407;28;20220;-70
2022/12/13 17:27:10;;;;;;;19.60;14.40;;;0.40;99.90;;;;;;5032509;28;20202;-70
2022/12/13 17:29:37;;;;;;;23.27;15.60;;;0.40;99.90;;;;;;5032636;28;20650;-69
2022/12/13 17:32:04;;;;;;;20.00;14.07;;;0.40;99.90;;;;;;5033477;28;20202;-69
2022/12/13 17:34:33;;;;;;;35.93;23.40;;;0.40;99.90;;;;;;5031928;28;20210;-68
2022/12/13 17:36:59;;;;;;;22.27;15.77;;;0.50;99.90;;;;;;5032157;28;20213;-69
2022/12/13 17:39:26;;;;;;;20.73;13.83;;;0.40;99.90;;;;;;5030293;28;20211;-72
2022/12/13 17:41:53;;;;;;;19.77;12.60;;;0.50;99.90;;;;;;5032862;28;20226;-70
2022/12/13 17:44:20;;;;;;;18.57;12.33;;;0.50;99.90;;;;;;5031250;28;20305;-69
2022/12/13 17:46:47;;;;;;;19.57;12.70;;;0.50;99.90;;;;;;5032652;28;20234;-69
2022/12/13 17:49:14;;;;;;;18.07;12.73;;;0.40;99.90;;;;;;5032681;28;20206;-72
2022/12/13 17:51:42;;;;;;;21.73;14.53;;;0.40;99.90;;;;;;5022926;28;20592;-69
2022/12/13 17:54:09;;;;;;;19.23;13.47;;;0.40;99.90;;;;;;5042334;28;20229;-67
2022/12/13 17:56:37;;;;;;;20.10;12.57;;;0.40;99.90;;;;;;5036443;28;20220;-70
2022/12/13 17:59:04;;;;;;;16.63;11.03;;;0.40;99.90;;;;;;5032918;28;20656;-69
2022/12/13 18:01:30;;;;;;;16.73;10.10;;;0.40;99.90;;;;;;5031572;28;20222;-67
2022/12/13 18:03:58;;;;;;;14.17;9.90;;;0.40;99.90;;;;;;5031503;28;20201;-68
2022/12/13 18:06:25;;;;;;;14.73;9.43;;;0.40;99.90;;;;;;5031913;28;20213;-72
